Time;durP1;ratioP1;P1;durP2;ratioP2;P2;SDS_P1;SDS_P2;PMS_P1;PMS_P2;Temp;Humidity;BMP_temperature;BMP_pressure;BME280_temperature;BME280_humidity;BME280_pressure;Samples;Min_cycle;Max_cycle;Signal;HPM_P1;HPM_P2
2022/09/06 00:00:41;;;;;;;11.97;7.67;;;18.70;35.20;;;;;;5065057;28;20478;-69
2022/09/06 00:03:09;;;;;;;12.00;7.97;;;18.70;35.30;;;;;;5063742;28;20488;-68
2022/09/06 00:05:37;;;;;;;8.40;6.60;;;18.60;36.00;;;;;;5061173;28;20481;-69
2022/09/06 00:08:05;;;;;;;10.50;7.50;;;18.50;35.90;;;;;;5063279;28;20453;-69
2022/09/06 00:10:32;;;;;;;10.93;7.77;;;18.60;35.60;;;;;;5064931;28;20457;-68
2022/09/06 00:13:03;;;;;;;9.83;7.00;;;18.50;35.60;;;;;;5062466;28;20462;-69
2022/09/06 00:15:30;;;;;;;9.90;7.37;;;18.50;35.80;;;;;;5065039;28;20477;-70
2022/09/06 00:17:59;;;;;;;12.70;7.97;;;18.40;35.60;;;;;;5064119;28;20818;-68
2022/09/06 00:20:26;;;;;;;9.30;7.10;;;18.40;35.80;;;;;;5063390;28;20465;-68
2022/09/06 00:22:56;;;;;;;10.20;7.83;;;18.40;36.00;;;;;;5058486;28;20454;-70
2022/09/06 00:25:24;;;;;;;11.47;8.00;;;18.30;36.30;;;;;;5066199;28;20473;-69
2022/09/06 00:27:54;;;;;;;10.83;7.60;;;18.30;36.20;;;;;;5061025;28;20486;-68
2022/09/06 00:30:23;;;;;;;12.93;7.57;;;18.20;37.10;;;;;;5061425;28;20850;-67
2022/09/06 00:32:50;;;;;;;12.30;7.80;;;18.10;36.80;;;;;;5062436;28;20465;-68
2022/09/06 00:35:17;;;;;;;10.03;7.77;;;18.10;37.00;;;;;;5062697;28;20585;-70
2022/09/06 00:37:44;;;;;;;13.47;7.47;;;18.10;37.00;;;;;;5063040;28;20464;-69
2022/09/06 00:40:13;;;;;;;10.73;6.70;;;18.10;36.80;;;;;;5064341;28;20484;-69
2022/09/06 00:42:40;;;;;;;9.10;7.10;;;18.10;36.80;;;;;;5062876;28;20470;-68
2022/09/06 00:45:09;;;;;;;14.57;8.10;;;18.10;36.60;;;;;;5062403;28;20495;-68
2022/09/06 00:47:39;;;;;;;13.13;8.97;;;18.00;37.00;;;;;;5069103;28;20457;-70
2022/09/06 00:50:07;;;;;;;13.30;7.93;;;18.00;37.30;;;;;;5069023;28;20472;-69
2022/09/06 00:52:36;;;;;;;15.30;6.80;;;17.90;37.50;;;;;;5068540;28;20459;-68
2022/09/06 00:55:03;;;;;;;13.50;8.80;;;17.90;37.30;;;;;;5066794;28;20491;-69
2022/09/06 00:57:31;;;;;;;16.77;9.70;;;17.90;37.70;;;;;;5063101;28;20840;-68
2022/09/06 00:59:59;;;;;;;14.43;10.07;;;17.80;38.00;;;;;;5059343;28;20469;-68
2022/09/06 01:02:26;;;;;;;16.60;9.83;;;17.80;37.70;;;;;;5067379;28;20475;-69
2022/09/06 01:04:55;;;;;;;14.00;10.00;;;17.80;37.50;;;;;;5067289;28;20568;-68
2022/09/06 01:07:33;;;;;;;14.50;9.53;;;17.80;37.40;;;;;;5067333;28;20453;-69
2022/09/06 01:10:14;;;;;;;12.93;8.83;;;17.80;38.20;;;;;;5064602;28;20453;-69
2022/09/06 01:12:47;;;;;;;13.90;9.20;;;17.80;38.20;;;;;;5065806;28;20465;-68
2022/09/06 01:15:25;;;;;;;11.43;8.50;;;17.80;38.40;;;;;;5069774;28;21027;-68
2022/09/06 01:18:01;;;;;;;10.97;8.27;;;17.80;38.40;;;;;;5060657;28;20949;-68
2022/09/06 01:20:58;;;;;;;14.30;9.50;;;17.80;38.20;;;;;;5062776;28;20457;-68
2022/09/06 01:24:03;;;;;;;13.30;9.50;;;17.80;38.90;;;;;;5045696;28;20851;-68
2022/09/06 01:27:03;;;;;;;13.20;9.70;;;17.70;39.20;;;;;;5062973;28;20969;-68
2022/09/06 01:29:36;;;;;;;12.73;8.57;;;17.70;39.10;;;;;;5065909;28;20949;-68
2022/09/06 01:32:09;;;;;;;10.13;8.00;;;17.70;39.00;;;;;;5056675;28;20474;-69
2022/09/06 01:34:42;;;;;;;14.70;8.53;;;17.60;38.90;;;;;;5061126;28;20485;-68
2022/09/06 01:37:11;;;;;;;9.83;7.60;;;17.60;38.60;;;;;;5066624;28;20457;-67
2022/09/06 01:39:40;;;;;;;12.90;8.60;;;17.60;38.50;;;;;;5067015;28;20457;-70
2022/09/06 01:42:10;;;;;;;10.30;7.83;;;17.60;38.20;;;;;;5068343;28;20539;-68
2022/09/06 01:44:40;;;;;;;12.00;7.73;;;17.60;38.40;;;;;;5052356;28;20561;-68
2022/09/06 01:47:19;;;;;;;13.70;7.73;;;17.60;38.40;;;;;;5066540;28;20460;-69
2022/09/06 01:49:57;;;;;;;10.43;7.43;;;17.60;38.30;;;;;;5063855;28;20457;-69
2022/09/06 01:52:34;;;;;;;10.97;7.80;;;17.60;38.70;;;;;;5062861;28;20548;-68
2022/09/06 01:55:13;;;;;;;10.60;7.87;;;17.60;38.60;;;;;;5064967;28;20484;-68
2022/09/06 01:57:52;;;;;;;11.30;9.50;;;17.50;38.70;;;;;;5063462;28;20954;-68
2022/09/06 02:00:22;;;;;;;12.73;8.00;;;17.50;38.90;;;;;;5063221;28;20851;-69
2022/09/06 02:02:57;;;;;;;10.40;8.33;;;17.50;38.60;;;;;;5060599;28;20461;-69
2022/09/06 02:05:31;;;;;;;12.20;8.90;;;17.50;38.60;;;;;;5066431;28;20560;-71
2022/09/06 02:08:10;;;;;;;12.80;9.20;;;17.50;38.40;;;;;;5062471;28;20857;-69
2022/09/06 02:10:44;;;;;;;10.90;8.20;;;17.50;38.40;;;;;;5062191;28;20449;-70
2022/09/06 02:13:14;;;;;;;12.47;8.90;;;17.50;38.20;;;;;;5067423;28;20445;-70
2022/09/06 02:15:47;;;;;;;11.17;7.83;;;17.50;37.90;;;;;;5079038;22;20496;-59
2022/09/06 02:18:17;;;;;;;11.10;7.50;;;17.50;37.90;;;;;;5096675;27;20957;-59
2022/09/06 02:20:49;;;;;;;13.47;8.50;;;17.50;37.90;;;;;;5104988;28;20458;-59
2022/09/06 02:23:17;;;;;;;10.37;7.90;;;17.50;37.90;;;;;;5104575;28;20447;-59
2022/09/06 02:25:50;;;;;;;11.83;8.53;;;17.50;37.70;;;;;;5102276;28;20470;-59
2022/09/06 02:28:17;;;;;;;11.50;7.93;;;17.50;37.50;;;;;;5096959;28;20837;-59
2022/09/06 02:30:49;;;;;;;11.90;8.37;;;17.50;37.50;;;;;;5107228;28;20463;-59
2022/09/06 02:33:18;;;;;;;10.93;8.03;;;17.40;37.70;;;;;;5102420;28;20455;-59
2022/09/06 02:35:48;;;;;;;13.23;8.40;;;17.40;37.60;;;;;;5097664;28;20568;-58
2022/09/06 02:38:15;;;;;;;11.47;7.50;;;17.40;37.80;;;;;;5106208;28;20456;-59
2022/09/06 02:40:42;;;;;;;10.40;8.40;;;17.30;37.80;;;;;;5103841;28;20479;-59
2022/09/06 02:43:09;;;;;;;10.20;7.60;;;17.30;37.90;;;;;;5106179;28;20536;-59
2022/09/06 02:45:36;;;;;;;11.00;8.30;;;17.30;38.00;;;;;;5102154;28;21140;-59
2022/09/06 02:48:05;;;;;;;12.20;8.10;;;17.30;38.00;;;;;;5104658;28;20455;-59
2022/09/06 02:50:31;;;;;;;9.13;7.73;;;17.30;38.20;;;;;;5105808;28;20459;-60
2022/09/06 02:53:04;;;;;;;11.50;7.33;;;17.30;38.20;;;;;;5103955;28;20455;-59
2022/09/06 02:55:31;;;;;;;10.80;7.80;;;17.30;38.40;;;;;;5104594;28;20486;-59
2022/09/06 02:57:58;;;;;;;13.03;7.47;;;17.30;38.40;;;;;;5109759;27;21002;-59
2022/09/06 03:00:25;;;;;;;12.17;8.40;;;17.20;38.50;;;;;;5111773;27;20459;-59
2022/09/06 03:02:52;;;;;;;10.20;6.97;;;17.20;38.30;;;;;;5113410;28;20458;-60
2022/09/06 03:05:20;;;;;;;11.80;7.50;;;17.30;38.30;;;;;;5106754;28;20472;-60
2022/09/06 03:07:47;;;;;;;10.30;7.80;;;17.20;39.00;;;;;;5105701;27;20459;-58
2022/09/06 03:10:14;;;;;;;12.73;8.10;;;17.20;38.60;;;;;;5110019;27;21843;-59
2022/09/06 03:12:42;;;;;;;12.03;8.03;;;17.20;38.40;;;;;;5112360;28;20935;-59
2022/09/06 03:15:09;;;;;;;13.80;7.80;;;17.20;38.50;;;;;;5109146;28;20482;-59
2022/09/06 03:17:36;;;;;;;11.67;6.70;;;17.20;38.40;;;;;;5112476;27;20465;-59
2022/09/06 03:20:04;;;;;;;12.10;8.57;;;17.20;38.40;;;;;;5112733;28;20469;-59
2022/09/06 03:22:33;;;;;;;9.80;7.17;;;17.10;38.50;;;;;;5106786;27;20463;-59
2022/09/06 03:24:59;;;;;;;11.50;8.90;;;17.10;38.70;;;;;;5105945;27;20452;-59
2022/09/06 03:27:26;;;;;;;10.77;7.17;;;17.10;38.50;;;;;;5112025;27;20443;-59
2022/09/06 03:29:53;;;;;;;9.60;8.03;;;17.10;38.50;;;;;;5110382;27;20451;-59
2022/09/06 03:32:20;;;;;;;10.23;7.57;;;17.10;38.50;;;;;;5111813;28;20462;-59
2022/09/06 03:34:46;;;;;;;11.13;7.47;;;17.00;38.50;;;;;;5109845;27;20986;-60
2022/09/06 03:37:13;;;;;;;11.70;7.80;;;17.00;38.50;;;;;;5112538;27;20482;-60
2022/09/06 03:39:41;;;;;;;12.70;7.83;;;17.00;38.60;;;;;;5109318;27;20466;-59
2022/09/06 03:42:08;;;;;;;11.13;8.23;;;17.00;38.50;;;;;;5107423;28;20455;-59
2022/09/06 03:44:35;;;;;;;12.77;9.20;;;17.00;38.60;;;;;;5111593;27;20455;-60
2022/09/06 03:47:01;;;;;;;12.80;9.43;;;17.00;38.70;;;;;;5113301;27;20471;-59
2022/09/06 03:49:28;;;;;;;11.30;9.10;;;17.00;39.20;;;;;;5110942;27;20460;-60
2022/09/06 03:51:55;;;;;;;11.37;8.87;;;17.00;39.50;;;;;;5107733;28;20463;-59
2022/09/06 03:54:23;;;;;;;14.07;9.03;;;17.00;39.50;;;;;;5111635;27;20461;-59
2022/09/06 03:56:51;;;;;;;12.17;7.93;;;17.00;39.60;;;;;;5106494;27;20478;-59
2022/09/06 03:59:18;;;;;;;13.07;9.60;;;17.00;39.60;;;;;;5109696;27;20820;-59
2022/09/06 04:01:44;;;;;;;11.53;8.40;;;17.00;39.40;;;;;;5107379;28;20486;-59
2022/09/06 04:04:11;;;;;;;11.63;7.53;;;17.00;39.30;;;;;;5111445;28;20451;-59
2022/09/06 04:06:38;;;;;;;16.17;9.30;;;17.00;39.50;;;;;;5110104;27;20467;-59
2022/09/06 04:09:04;;;;;;;12.23;9.13;;;17.00;39.70;;;;;;5104893;28;20455;-59
2022/09/06 04:11:31;;;;;;;10.57;8.33;;;17.00;39.60;;;;;;5110155;27;20805;-59
2022/09/06 04:13:59;;;;;;;12.07;8.80;;;17.00;39.50;;;;;;5110461;27;20455;-59
2022/09/06 04:16:26;;;;;;;10.60;8.03;;;17.00;39.80;;;;;;5102131;28;20502;-59
2022/09/06 04:18:53;;;;;;;11.13;7.50;;;17.10;39.40;;;;;;5109775;28;20455;-60
2022/09/06 04:21:20;;;;;;;14.17;8.30;;;17.10;39.20;;;;;;5062594;28;20535;-59
2022/09/06 04:23:46;;;;;;;12.43;7.40;;;17.20;39.00;;;;;;5109331;28;20455;-59
2022/09/06 04:26:13;;;;;;;15.17;8.30;;;17.30;38.90;;;;;;5105132;28;20494;-59
2022/09/06 04:28:40;;;;;;;9.07;7.40;;;17.30;38.70;;;;;;5109097;28;20458;-59
2022/09/06 04:31:08;;;;;;;9.40;6.80;;;17.40;38.40;;;;;;5112538;27;20458;-59
2022/09/06 04:33:37;;;;;;;15.43;6.73;;;17.50;38.20;;;;;;5101808;28;20928;-59
2022/09/06 04:36:05;;;;;;;11.30;7.97;;;17.50;38.00;;;;;;5104576;28;21273;-58
2022/09/06 04:38:36;;;;;;;15.43;8.90;;;17.40;38.10;;;;;;5108754;28;20459;-58
2022/09/06 04:41:04;;;;;;;10.80;8.13;;;17.30;38.20;;;;;;5109859;28;20458;-59
2022/09/06 04:43:30;;;;;;;16.77;8.40;;;17.30;38.70;;;;;;5099696;28;20463;-59
2022/09/06 04:46:03;;;;;;;10.90;8.57;;;17.30;39.00;;;;;;5109782;28;20471;-59
2022/09/06 04:48:31;;;;;;;11.00;8.13;;;17.30;38.40;;;;;;5102287;27;20448;-58
2022/09/06 04:50:58;;;;;;;10.53;8.93;;;17.30;38.70;;;;;;5110447;28;20460;-59
2022/09/06 04:53:25;;;;;;;13.93;8.90;;;17.30;39.20;;;;;;5099007;28;20460;-59
2022/09/06 04:55:51;;;;;;;13.00;9.40;;;17.30;39.10;;;;;;5087125;28;20471;-59
2022/09/06 04:58:18;;;;;;;13.60;9.80;;;17.30;38.90;;;;;;5102989;28;20470;-59
2022/09/06 05:00:46;;;;;;;14.90;9.53;;;17.30;39.00;;;;;;5106907;28;20483;-58
2022/09/06 05:03:13;;;;;;;9.10;7.90;;;17.30;38.60;;;;;;5103769;28;20827;-59
2022/09/06 05:05:41;;;;;;;12.57;8.93;;;17.30;38.50;;;;;;5096693;27;20488;-59
2022/09/06 05:08:08;;;;;;;13.57;9.33;;;17.30;38.50;;;;;;5105217;28;20456;-60
2022/09/06 05:10:34;;;;;;;11.20;8.50;;;17.30;38.60;;;;;;5102674;27;20481;-58
2022/09/06 05:13:01;;;;;;;12.17;8.77;;;17.20;38.70;;;;;;5109556;28;20459;-59
2022/09/06 05:15:28;;;;;;;13.70;9.33;;;17.20;38.80;;;;;;5107131;28;20487;-59
2022/09/06 05:18:02;;;;;;;11.87;10.43;;;17.20;38.70;;;;;;5108419;28;20471;-59
2022/09/06 05:20:28;;;;;;;13.40;9.23;;;17.20;38.80;;;;;;5107730;28;20448;-59
2022/09/06 05:22:56;;;;;;;12.40;9.40;;;17.30;38.70;;;;;;5104669;27;20468;-58
2022/09/06 05:25:23;;;;;;;11.57;9.50;;;17.20;38.70;;;;;;5100196;28;21009;-59
2022/09/06 05:27:50;;;;;;;14.67;9.10;;;17.30;38.90;;;;;;5109469;28;20809;-59
2022/09/06 05:30:18;;;;;;;12.90;10.53;;;17.40;38.60;;;;;;5106647;28;20459;-60
2022/09/06 05:32:45;;;;;;;13.50;9.67;;;17.40;38.40;;;;;;5109266;28;20452;-59
2022/09/06 05:35:11;;;;;;;10.80;8.70;;;17.50;38.50;;;;;;5106341;28;21201;-59
2022/09/06 05:37:38;;;;;;;11.43;9.30;;;17.50;38.60;;;;;;5107761;28;20479;-59
2022/09/06 05:40:08;;;;;;;11.73;9.80;;;17.60;38.60;;;;;;5108562;27;20451;-59
2022/09/06 05:42:34;;;;;;;12.40;9.40;;;17.60;38.50;;;;;;5108372;28;20998;-59
2022/09/06 05:45:01;;;;;;;13.63;8.77;;;17.60;38.50;;;;;;5108477;28;20482;-59
2022/09/06 05:47:29;;;;;;;11.43;9.70;;;17.70;38.40;;;;;;5105556;28;20513;-58
2022/09/06 05:49:56;;;;;;;12.13;9.70;;;17.70;38.60;;;;;;5107763;28;20466;-59
2022/09/06 05:54:50;;;;;;;10.40;8.83;;;17.90;38.30;;;;;;5101339;22;20579;-60
2022/09/06 05:57:18;;;;;;;12.27;9.07;;;18.00;38.30;;;;;;5099912;28;20847;-59
2022/09/06 05:59:45;;;;;;;11.97;9.80;;;18.10;38.30;;;;;;5101852;28;21015;-59
2022/09/06 06:02:12;;;;;;;10.00;8.10;;;18.20;38.10;;;;;;5097993;28;21155;-58
2022/09/06 06:04:39;;;;;;;11.80;8.80;;;18.30;38.00;;;;;;5081225;28;21214;-60
2022/09/06 06:07:05;;;;;;;13.37;9.27;;;18.40;37.60;;;;;;5077143;28;20458;-59
2022/09/06 06:09:32;;;;;;;11.47;8.53;;;18.60;37.40;;;;;;5080722;28;20453;-59
2022/09/06 06:11:59;;;;;;;9.43;7.70;;;18.80;37.30;;;;;;5086221;28;20535;-58
2022/09/06 06:14:27;;;;;;;10.90;7.67;;;19.20;37.20;;;;;;5082828;28;20476;-58
2022/09/06 06:16:54;;;;;;;10.23;7.53;;;19.60;36.50;;;;;;5075121;28;20472;-58
2022/09/06 06:19:20;;;;;;;11.43;7.40;;;20.50;35.10;;;;;;5076925;28;20464;-58
2022/09/06 06:21:47;;;;;;;9.27;6.70;;;21.40;31.50;;;;;;5077769;28;20456;-58
2022/09/06 06:24:14;;;;;;;9.17;7.00;;;22.60;28.90;;;;;;5075755;28;20472;-59
2022/09/06 06:26:42;;;;;;;9.53;5.97;;;24.00;24.30;;;;;;5078426;28;20456;-60
2022/09/06 06:29:09;;;;;;;9.23;6.00;;;25.40;19.20;;;;;;5079009;28;20455;-58
2022/09/06 06:31:38;;;;;;;8.20;5.17;;;26.60;16.80;;;;;;5080519;28;20489;-59
2022/09/06 06:34:05;;;;;;;7.30;5.23;;;28.20;14.80;;;;;;5082020;28;20503;-59
2022/09/06 06:36:34;;;;;;;7.47;5.00;;;29.60;11.40;;;;;;5078450;28;20476;-59
2022/09/06 06:39:03;;;;;;;8.60;4.70;;;29.40;10.80;;;;;;5086166;28;20876;-58
2022/09/06 06:41:32;;;;;;;8.37;5.03;;;29.40;10.80;;;;;;5086130;28;21245;-59
2022/09/06 06:44:00;;;;;;;7.00;4.70;;;29.00;10.50;;;;;;5085467;28;20472;-58
2022/09/06 06:46:30;;;;;;;9.20;5.53;;;28.60;10.80;;;;;;5079917;28;20448;-59
2022/09/06 06:48:58;;;;;;;7.77;5.27;;;28.40;11.30;;;;;;5080793;28;20479;-60
2022/09/06 06:51:27;;;;;;;5.60;4.20;;;29.70;10.30;;;;;;5073792;28;20452;-60
2022/09/06 06:53:55;;;;;;;9.10;4.10;;;31.50;7.60;;;;;;5081321;28;20484;-60
2022/09/06 06:56:23;;;;;;;6.27;3.80;;;32.60;5.00;;;;;;5083436;28;20452;-60
2022/09/06 06:58:52;;;;;;;6.93;4.23;;;32.60;4.20;;;;;;5074049;28;20464;-59
2022/09/06 07:01:21;;;;;;;5.20;3.50;;;32.30;4.60;;;;;;5079843;28;20479;-59
2022/09/06 07:03:48;;;;;;;6.73;3.50;;;32.30;4.50;;;;;;5078600;28;20479;-60
2022/09/06 07:06:17;;;;;;;6.13;3.60;;;32.60;3.10;;;;;;5080717;28;20452;-59
2022/09/06 07:08:44;;;;;;;9.27;3.40;;;32.40;3.50;;;;;;5073695;28;20552;-60
2022/09/06 07:11:13;;;;;;;6.40;3.40;;;32.40;3.40;;;;;;5080962;28;20464;-59
2022/09/06 07:13:40;;;;;;;6.63;3.43;;;32.60;3.40;;;;;;5081699;28;20476;-59
2022/09/06 07:16:09;;;;;;;6.43;3.50;;;33.40;2.30;;;;;;5076320;28;20483;-59
2022/09/06 07:18:36;;;;;;;9.20;3.70;;;33.40;2.20;;;;;;5084578;28;20495;-59
2022/09/06 07:21:03;;;;;;;7.70;3.70;;;33.50;1.90;;;;;;5086363;28;20468;-59
2022/09/06 07:23:31;;;;;;;6.77;3.60;;;33.00;3.00;;;;;;5081626;28;20476;-59
2022/09/06 07:25:58;;;;;;;5.73;3.20;;;32.60;3.50;;;;;;5082776;28;20463;-60
2022/09/06 07:28:25;;;;;;;7.07;3.07;;;32.90;3.20;;;;;;5084947;28;20452;-59
2022/09/06 07:30:54;;;;;;;4.43;2.63;;;33.10;2.80;;;;;;5082308;28;20481;-60
2022/09/06 07:33:21;;;;;;;5.40;3.20;;;33.40;2.60;;;;;;5083486;28;20828;-59
2022/09/06 07:35:59;;;;;;;4.80;2.50;;;33.50;2.10;;;;;;5080527;28;20835;-60
2022/09/06 07:38:26;;;;;;;5.80;2.90;;;34.10;1.80;;;;;;5076826;28;20480;-59
2022/09/06 07:40:56;;;;;;;4.97;2.90;;;35.30;1.00;;;;;;5082027;28;20483;-60
2022/09/06 07:43:23;;;;;;;7.23;2.77;;;36.50;1.00;;;;;;5080117;28;20475;-60
2022/09/06 07:45:57;;;;;;;7.23;2.80;;;37.60;1.00;;;;;;5076060;28;20464;-60
2022/09/06 07:48:23;;;;;;;5.00;2.67;;;37.90;1.00;;;;;;5081669;28;20467;-60
2022/09/06 07:50:50;;;;;;;4.90;2.10;;;37.70;1.00;;;;;;5090283;28;20480;-60
2022/09/06 07:53:17;;;;;;;6.13;2.60;;;38.70;1.00;;;;;;5087017;28;20491;-60
2022/09/06 07:55:44;;;;;;;6.97;3.13;;;40.10;1.00;;;;;;5086015;28;20479;-59
2022/09/06 07:58:12;;;;;;;8.57;2.67;;;40.90;1.00;;;;;;5074509;28;20476;-59
2022/09/06 08:00:39;;;;;;;6.87;2.90;;;41.30;1.00;;;;;;5074087;28;20501;-59
2022/09/06 08:03:06;;;;;;;4.73;2.20;;;40.80;1.00;;;;;;5083234;28;20478;-59
2022/09/06 08:05:33;;;;;;;8.17;2.60;;;40.80;1.00;;;;;;5086127;28;20452;-59
2022/09/06 08:08:00;;;;;;;6.27;2.33;;;41.10;1.00;;;;;;5083695;28;20498;-60
2022/09/06 08:10:26;;;;;;;5.60;2.33;;;41.20;1.00;;;;;;5078886;28;20952;-59
2022/09/06 08:12:53;;;;;;;4.90;2.70;;;40.60;1.00;;;;;;5089941;28;20468;-60
2022/09/06 08:15:21;;;;;;;8.23;2.70;;;40.30;1.00;;;;;;5076544;28;20537;-60
2022/09/06 08:17:48;;;;;;;5.70;2.80;;;40.40;1.00;;;;;;5082914;28;20487;-60
2022/09/06 08:20:15;;;;;;;5.13;2.70;;;40.20;1.00;;;;;;5086933;28;20475;-60
2022/09/06 08:22:42;;;;;;;6.23;2.80;;;40.10;1.00;;;;;;5060924;28;20468;-60
2022/09/06 08:25:09;;;;;;;8.17;2.77;;;39.60;1.00;;;;;;5082160;28;20452;-59
2022/09/06 08:27:36;;;;;;;6.33;2.83;;;38.60;1.00;;;;;;5079001;28;20489;-60
2022/09/06 08:30:03;;;;;;;4.40;2.27;;;38.00;1.00;;;;;;5084106;28;20464;-60
2022/09/06 08:32:37;;;;;;;8.17;2.60;;;37.50;1.00;;;;;;5083447;28;20478;-60
2022/09/06 08:35:04;;;;;;;8.50;2.87;;;37.40;1.00;;;;;;5083997;28;20541;-59
2022/09/06 08:37:31;;;;;;;8.57;2.97;;;37.20;1.00;;;;;;5076246;28;20507;-59
2022/09/06 08:39:58;;;;;;;5.63;2.43;;;36.60;1.00;;;;;;5081917;28;20469;-59
2022/09/06 08:42:25;;;;;;;5.53;2.50;;;36.80;1.00;;;;;;5086518;28;20463;-59
2022/09/06 08:44:52;;;;;;;8.80;3.00;;;38.40;1.00;;;;;;5075192;28;21153;-59
2022/09/06 08:47:20;;;;;;;5.93;2.80;;;39.90;1.00;;;;;;5071251;28;20515;-60
2022/09/06 08:49:51;;;;;;;6.27;2.70;;;40.50;1.00;;;;;;5078677;28;20452;-59
2022/09/06 08:52:42;;;;;;;5.30;2.40;;;41.40;1.00;;;;;;5081872;28;20548;-59
2022/09/06 08:55:33;;;;;;;6.67;2.50;;;42.60;1.00;;;;;;5079404;28;20460;-60
2022/09/06 08:58:12;;;;;;;6.80;2.40;;;44.20;1.00;;;;;;5069447;28;20484;-60
2022/09/06 09:00:40;;;;;;;8.43;2.87;;;44.70;1.00;;;;;;5083099;28;20472;-59
2022/09/06 09:03:11;;;;;;;6.30;2.60;;;44.30;1.00;;;;;;5074815;28;20505;-59
2022/09/06 09:05:42;;;;;;;10.07;2.40;;;44.70;1.00;;;;;;5083125;28;20821;-60
2022/09/06 09:08:20;;;;;;;8.70;2.63;;;44.80;1.00;;;;;;5081235;28;20805;-59
2022/09/06 09:10:50;;;;;;;5.43;2.47;;;44.50;1.00;;;;;;5078256;28;20844;-59
2022/09/06 09:13:24;;;;;;;5.90;2.90;;;44.10;1.00;;;;;;5082866;28;20472;-59
2022/09/06 09:15:50;;;;;;;6.63;2.50;;;43.50;1.00;;;;;;5078229;28;20960;-59
2022/09/06 09:18:23;;;;;;;5.90;2.60;;;43.20;1.00;;;;;;5069173;28;20475;-59
2022/09/06 09:20:51;;;;;;;4.60;2.17;;;42.30;1.00;;;;;;5068598;28;20840;-60
2022/09/06 09:23:18;;;;;;;5.80;2.20;;;41.40;1.00;;;;;;5082513;28;21014;-59
2022/09/06 09:25:46;;;;;;;5.93;2.50;;;41.30;1.00;;;;;;5081595;28;20504;-59
2022/09/06 09:28:17;;;;;;;5.90;3.07;;;41.20;1.00;;;;;;5069309;28;20501;-59
2022/09/06 09:30:50;;;;;;;7.80;2.50;;;40.20;1.00;;;;;;5073348;28;20466;-59
2022/09/06 09:33:23;;;;;;;4.60;2.30;;;39.20;1.00;;;;;;5066565;28;20495;-59
2022/09/06 09:35:51;;;;;;;4.60;2.00;;;39.40;1.00;;;;;;5081724;28;21057;-59
2022/09/06 09:38:24;;;;;;;5.47;2.43;;;40.10;1.00;;;;;;5071029;28;20507;-59
2022/09/06 09:40:52;;;;;;;9.47;2.87;;;39.60;1.00;;;;;;5086402;28;20456;-59
2022/09/06 09:43:22;;;;;;;5.20;2.47;;;38.80;1.00;;;;;;5083257;28;20476;-59
2022/09/06 09:46:15;;;;;;;5.90;2.23;;;38.10;1.00;;;;;;5073631;28;20462;-59
2022/09/06 09:48:48;;;;;;;6.30;2.17;;;37.80;1.00;;;;;;5070282;28;20460;-59
2022/09/06 09:51:22;;;;;;;7.07;2.40;;;38.00;1.00;;;;;;5082854;28;20552;-59
2022/09/06 09:53:53;;;;;;;7.50;2.50;;;39.30;1.00;;;;;;5086155;28;20853;-59
2022/09/06 09:56:33;;;;;;;4.80;2.47;;;40.90;1.00;;;;;;5087168;28;20460;-60
2022/09/06 09:59:01;;;;;;;5.77;2.57;;;41.90;1.00;;;;;;5086027;28;20519;-59
2022/09/06 10:01:30;;;;;;;7.97;2.40;;;44.00;1.00;;;;;;5082694;28;20479;-59
2022/09/06 10:04:03;;;;;;;5.57;2.53;;;45.40;1.00;;;;;;5078365;28;20480;-59
2022/09/06 10:06:32;;;;;;;5.47;2.37;;;46.30;1.00;;;;;;5079937;28;20909;-60
2022/09/06 10:08:59;;;;;;;7.13;2.70;;;47.20;1.00;;;;;;5080974;28;20527;-59
2022/09/06 10:11:41;;;;;;;7.17;2.80;;;48.10;1.00;;;;;;5084116;28;20456;-59
2022/09/06 10:14:12;;;;;;;11.33;3.10;;;48.30;1.00;;;;;;5082153;28;20483;-59
2022/09/06 10:16:44;;;;;;;5.47;2.40;;;48.70;1.00;;;;;;5070452;28;20465;-59
2022/09/06 10:19:37;;;;;;;5.97;2.27;;;49.20;1.00;;;;;;5082727;28;20480;-60
2022/09/06 10:22:26;;;;;;;7.57;1.83;;;49.30;1.00;;;;;;5081666;28;20937;-59
2022/09/06 10:25:27;;;;;;;7.07;2.73;;;49.70;1.00;;;;;;5077117;28;20457;-59
2022/09/06 10:28:22;;;;;;;6.23;2.50;;;49.80;1.00;;;;;;5074731;28;20470;-59
2022/09/06 10:31:00;;;;;;;11.27;2.87;;;50.10;1.00;;;;;;5077540;28;20484;-59
2022/09/06 10:33:34;;;;;;;8.20;2.47;;;50.40;1.00;;;;;;5074732;28;20609;-60
2022/09/06 10:36:03;;;;;;;8.20;2.97;;;50.10;1.00;;;;;;5079841;28;20568;-60
2022/09/06 10:38:40;;;;;;;7.97;2.00;;;49.60;1.00;;;;;;5075452;28;20498;-59
2022/09/06 10:41:28;;;;;;;7.77;2.70;;;48.70;1.00;;;;;;5078619;28;20457;-59
2022/09/06 10:44:02;;;;;;;6.80;2.20;;;47.50;1.00;;;;;;5075372;28;20499;-59
2022/09/06 10:46:33;;;;;;;7.47;2.47;;;47.80;1.00;;;;;;5081744;28;20455;-59
2022/09/06 10:49:00;;;;;;;5.80;2.37;;;47.30;1.00;;;;;;5085106;28;20448;-60
2022/09/06 10:51:34;;;;;;;7.30;2.97;;;46.50;1.00;;;;;;5082154;28;20463;-60
2022/09/06 10:54:07;;;;;;;6.47;2.50;;;44.70;1.00;;;;;;5081921;28;20487;-59
2022/09/06 10:56:39;;;;;;;7.90;2.47;;;42.80;1.00;;;;;;5078923;28;20448;-59
2022/09/06 10:59:18;;;;;;;7.77;2.97;;;41.30;1.00;;;;;;5076335;28;20975;-59
2022/09/06 11:01:57;;;;;;;7.20;2.33;;;39.80;1.00;;;;;;5081429;28;20888;-60
2022/09/06 11:04:29;;;;;;;11.63;3.00;;;38.80;1.00;;;;;;5078135;28;20953;-59
2022/09/06 11:07:00;;;;;;;11.53;2.90;;;37.80;1.00;;;;;;5076094;28;20472;-59
2022/09/06 11:09:34;;;;;;;7.47;2.50;;;37.00;1.00;;;;;;5081791;28;20454;-59
2022/09/06 11:12:10;;;;;;;7.50;2.73;;;36.80;1.00;;;;;;5084495;28;20459;-59
2022/09/06 11:14:38;;;;;;;6.20;2.67;;;36.80;1.00;;;;;;5078742;28;20603;-59
2022/09/06 11:17:10;;;;;;;5.87;2.57;;;36.60;1.00;;;;;;5085272;28;20448;-59
2022/09/06 11:19:43;;;;;;;8.17;2.50;;;36.40;1.00;;;;;;5079609;28;20480;-59
2022/09/06 11:22:32;;;;;;;10.80;3.53;;;36.10;1.00;;;;;;5084672;28;20463;-59
2022/09/06 11:25:39;;;;;;;8.40;2.73;;;35.60;1.10;;;;;;5081535;28;20459;-59
2022/09/06 11:28:11;;;;;;;8.23;3.20;;;35.10;1.30;;;;;;5074131;28;20448;-59
2022/09/06 11:30:43;;;;;;;8.00;2.50;;;34.70;2.10;;;;;;5082547;28;20468;-60
2022/09/06 11:33:22;;;;;;;9.10;3.00;;;34.40;2.80;;;;;;5083553;28;20603;-59
2022/09/06 11:35:49;;;;;;;12.63;3.00;;;34.20;3.60;;;;;;5084249;28;20453;-59
2022/09/06 11:38:23;;;;;;;7.20;3.50;;;33.90;3.70;;;;;;5082477;28;20491;-59
2022/09/06 11:40:57;;;;;;;8.07;3.57;;;33.70;3.90;;;;;;5083420;28;20462;-59
2022/09/06 11:43:46;;;;;;;7.07;2.70;;;33.40;4.50;;;;;;5079527;28;20475;-60
2022/09/06 11:46:47;;;;;;;7.47;3.50;;;33.00;5.50;;;;;;5078069;28;20471;-60
2022/09/06 11:49:32;;;;;;;7.27;3.40;;;32.70;5.00;;;;;;5078181;28;20461;-59
2022/09/06 11:51:59;;;;;;;6.83;2.93;;;32.50;5.30;;;;;;5081959;28;20838;-59
2022/09/06 11:54:34;;;;;;;7.73;3.50;;;32.20;5.30;;;;;;5089503;28;20482;-59
2022/09/06 11:57:13;;;;;;;8.27;3.67;;;32.00;5.80;;;;;;5080005;28;20931;-59
2022/09/06 11:59:56;;;;;;;8.83;4.40;;;31.80;6.40;;;;;;5080767;28;20492;-59
2022/09/06 12:02:35;;;;;;;8.00;3.43;;;31.50;7.20;;;;;;5080037;28;20487;-59
2022/09/06 12:05:16;;;;;;;9.10;3.77;;;31.50;7.30;;;;;;5080140;28;20556;-59
2022/09/06 12:08:32;;;;;;;8.13;4.10;;;31.40;7.50;;;;;;5080507;28;20488;-59
2022/09/06 12:11:05;;;;;;;7.63;3.50;;;31.50;7.10;;;;;;5084720;28;20565;-59
2022/09/06 12:13:47;;;;;;;7.83;4.03;;;31.50;7.70;;;;;;5080331;28;20479;-59
2022/09/06 12:16:15;;;;;;;7.23;3.67;;;31.50;8.10;;;;;;5084534;28;20448;-58
2022/09/06 12:19:05;;;;;;;8.70;3.30;;;31.40;8.50;;;;;;5101408;22;20503;-66
2022/09/06 12:21:41;;;;;;;7.30;3.60;;;31.30;8.30;;;;;;5082277;28;20736;-66
2022/09/06 12:24:29;;;;;;;11.23;3.10;;;31.20;8.40;;;;;;5085722;28;20463;-66
2022/09/06 12:27:11;;;;;;;10.70;4.03;;;31.10;8.50;;;;;;5087737;28;20453;-66
2022/09/06 12:29:39;;;;;;;13.80;3.93;;;31.00;8.90;;;;;;5083273;28;20453;-66
2022/09/06 12:32:07;;;;;;;9.53;3.40;;;30.90;8.60;;;;;;5089115;28;20464;-66
2022/09/06 12:34:35;;;;;;;11.37;3.80;;;30.70;8.90;;;;;;5085786;28;20460;-66
2022/09/06 12:37:05;;;;;;;7.90;3.07;;;30.50;9.00;;;;;;5081581;28;20460;-66
2022/09/06 12:39:33;;;;;;;8.90;3.07;;;30.40;9.30;;;;;;5082754;28;20510;-66
2022/09/06 12:42:01;;;;;;;10.83;3.20;;;30.30;9.00;;;;;;5088795;28;20468;-66
2022/09/06 12:44:34;;;;;;;8.90;2.87;;;30.20;8.90;;;;;;5088792;28;20459;-65
2022/09/06 12:47:08;;;;;;;11.60;3.17;;;30.20;9.70;;;;;;5077468;28;20463;-66
2022/09/06 12:49:34;;;;;;;10.40;3.83;;;30.10;9.80;;;;;;5086115;28;20837;-66
2022/09/06 12:52:12;;;;;;;12.20;3.47;;;30.00;9.70;;;;;;5079838;28;20463;-66
2022/09/06 12:54:45;;;;;;;8.40;3.70;;;30.00;9.30;;;;;;5084843;28;20468;-66
2022/09/06 12:57:14;;;;;;;7.83;3.47;;;29.90;9.30;;;;;;5078406;28;20477;-66
2022/09/06 12:59:48;;;;;;;7.30;3.27;;;29.90;10.30;;;;;;5086065;28;20480;-66
2022/09/06 13:02:20;;;;;;;11.17;3.60;;;29.90;10.00;;;;;;5085001;28;20464;-67
2022/09/06 13:04:52;;;;;;;9.33;3.10;;;29.90;10.10;;;;;;5088446;28;20464;-66
2022/09/06 13:07:20;;;;;;;14.17;4.50;;;29.90;10.20;;;;;;5087467;28;20480;-67